createdAt,value
2022-11-02T00:00:36.952Z,100854.97
2022-11-02T00:03:03.776Z,100845.31
2022-11-02T00:05:31.082Z,100877.69
2022-11-02T00:07:57.813Z,100865.53
2022-11-02T00:10:24.936Z,100866.50
2022-11-02T00:12:52.244Z,100805.28
2022-11-02T00:15:19.328Z,100875.44
2022-11-02T00:17:50.230Z,100818.16
2022-11-02T00:20:18.948Z,100864.78
2022-11-02T00:22:47.888Z,100815.75
2022-11-02T00:25:17.466Z,100873.16
2022-11-02T00:27:43.961Z,100848.38
2022-11-02T00:30:10.737Z,100828.47
2022-11-02T00:32:37.115Z,100864.78
2022-11-02T00:35:03.529Z,100828.59
2022-11-02T00:37:29.927Z,100721.00
2022-11-02T00:39:56.283Z,100830.00
2022-11-02T00:42:22.641Z,100788.34
2022-11-02T00:44:49.066Z,100860.59
2022-11-02T00:47:15.480Z,100853.38
2022-11-02T00:49:41.897Z,100833.03
2022-11-02T00:52:08.322Z,100826.41
2022-11-02T00:54:34.686Z,100844.91
2022-11-02T00:59:32.437Z,100884.50
2022-11-02T01:01:58.988Z,100836.19
2022-11-02T01:04:25.572Z,100872.25
2022-11-02T01:06:52.047Z,100876.31
2022-11-02T01:09:18.379Z,100873.97
2022-11-02T01:11:44.777Z,100896.44
2022-11-02T01:14:11.327Z,100857.03
2022-11-02T01:16:40.010Z,100817.09
2022-11-02T01:19:06.869Z,100868.44
2022-11-02T01:21:33.181Z,100871.03
2022-11-02T01:23:59.521Z,100828.69
2022-11-02T01:26:25.868Z,100849.03
2022-11-02T01:28:54.203Z,100900.75
2022-11-02T01:31:20.681Z,100892.63
2022-11-02T01:33:47.588Z,100898.31
2022-11-02T01:36:15.649Z,100884.78
2022-11-02T01:38:42.148Z,100862.13
2022-11-02T01:41:11.132Z,100843.88
2022-11-02T01:43:37.525Z,100836.19
2022-11-02T01:46:12.634Z,100840.22
2022-11-02T01:49:03.671Z,100892.03
2022-11-02T01:51:41.990Z,100879.59
2022-11-02T01:54:15.361Z,100868.94
2022-11-02T01:56:45.820Z,100832.19
2022-11-02T01:59:18.278Z,100876.25
2022-11-02T02:01:45.044Z,100875.59
2022-11-02T02:04:12.878Z,100888.94
2022-11-02T02:06:40.406Z,100857.13
2022-11-02T02:09:08.866Z,100886.34
2022-11-02T02:11:37.685Z,100873.41
2022-11-02T02:14:09.727Z,100887.63
2022-11-02T02:17:06.633Z,100892.78
2022-11-02T02:19:54.897Z,100893.25
2022-11-02T02:22:36.560Z,100896.00
2022-11-02T02:25:44.968Z,100893.25
2022-11-02T02:28:19.587Z,100900.00
2022-11-02T02:31:00.380Z,100891.38
2022-11-02T02:33:35.081Z,100878.66
2022-11-02T02:36:12.786Z,100891.97
2022-11-02T02:38:52.693Z,100859.56
2022-11-02T02:41:28.997Z,100870.69
2022-11-02T02:43:57.517Z,100896.25
2022-11-02T02:46:42.861Z,100891.84
2022-11-02T02:49:14.128Z,100901.47
2022-11-02T02:51:41.655Z,100877.06
2022-11-02T02:54:12.504Z,100912.13
2022-11-02T02:56:43.239Z,100865.53
2022-11-02T02:59:24.641Z,100846.72
2022-11-02T03:01:51.493Z,100811.16
2022-11-02T03:04:17.874Z,100917.00
2022-11-02T03:06:52.344Z,100863.97
2022-11-02T03:09:44.395Z,100927.81
2022-11-02T03:12:35.997Z,100914.56
2022-11-02T03:15:40.770Z,100941.00
2022-11-02T03:18:16.193Z,100916.84
2022-11-02T03:21:02.572Z,100920.72
2022-11-02T03:23:50.422Z,100935.03
2022-11-02T03:26:34.988Z,100889.84
2022-11-02T03:29:10.531Z,100923.28
2022-11-02T03:31:39.695Z,100941.94
2022-11-02T03:34:20.774Z,100943.41
2022-11-02T03:37:29.527Z,100952.16
2022-11-02T03:40:10.848Z,100931.38
2022-11-02T03:42:42.940Z,100925.38
2022-11-02T03:45:17.614Z,100913.31
2022-11-02T03:47:52.129Z,100946.06
2022-11-02T03:50:22.729Z,100964.22
2022-11-02T03:52:56.191Z,100919.75
2022-11-02T03:55:29.973Z,100973.22
2022-11-02T03:57:57.020Z,100949.28
2022-11-02T04:00:26.226Z,100993.81
2022-11-02T04:02:56.107Z,100999.88
2022-11-02T04:05:33.086Z,100940.63
2022-11-02T04:08:18.622Z,100989.41
2022-11-02T04:11:03.959Z,100974.47
2022-11-02T04:13:48.591Z,100976.94
2022-11-02T04:16:15.734Z,100934.84
2022-11-02T04:19:01.377Z,100998.22
2022-11-02T04:21:27.819Z,101008.38
2022-11-02T04:24:12.637Z,101009.25
2022-11-02T04:26:38.983Z,100971.72
2022-11-02T04:29:05.560Z,101017.91
2022-11-02T04:31:31.898Z,100959.63
2022-11-02T04:33:59.642Z,101000.53
2022-11-02T04:36:29.497Z,101020.97
2022-11-02T04:38:55.962Z,100967.88
2022-11-02T04:41:42.095Z,101007.41
2022-11-02T04:44:14.445Z,101027.56
2022-11-02T04:46:42.222Z,101013.88
2022-11-02T04:49:10.050Z,101029.47
2022-11-02T04:51:36.797Z,101050.06
2022-11-02T04:54:03.904Z,101019.66
2022-11-02T04:56:30.593Z,101005.56
2022-11-02T04:58:59.263Z,101017.09
2022-11-02T05:01:28.310Z,101032.78
2022-11-02T05:03:55.890Z,101055.91
2022-11-02T05:06:23.380Z,101033.97
2022-11-02T05:08:49.747Z,101030.44
2022-11-02T05:11:16.192Z,101036.81
2022-11-02T05:13:44.419Z,101009.97
2022-11-02T05:16:16.361Z,101047.69
2022-11-02T05:18:43.202Z,101005.78
2022-11-02T05:21:11.497Z,101006.88
2022-11-02T05:23:38.554Z,101064.72
2022-11-02T05:26:09.012Z,101056.31
2022-11-02T05:28:35.433Z,101006.69
2022-11-02T05:31:02.523Z,101054.44
2022-11-02T05:33:31.093Z,101081.06
2022-11-02T05:35:58.858Z,101063.22
2022-11-02T05:38:25.908Z,101080.00
2022-11-02T05:40:53.701Z,101013.97
2022-11-02T05:43:20.107Z,101044.06
2022-11-02T05:45:53.021Z,101095.94
2022-11-02T05:48:19.430Z,101065.78
2022-11-02T05:50:45.744Z,101097.00
2022-11-02T05:53:12.235Z,101070.09
2022-11-02T05:55:38.538Z,101086.31
2022-11-02T05:58:04.890Z,101072.59
2022-11-02T06:00:31.204Z,101083.88
2022-11-02T06:02:58.632Z,101097.47
2022-11-02T06:05:26.229Z,101120.09
2022-11-02T06:07:52.657Z,101084.63
2022-11-02T06:10:19.035Z,101061.06
2022-11-02T06:12:45.885Z,101090.03
2022-11-02T06:15:12.202Z,101102.72
2022-11-02T06:17:39.569Z,101117.97
2022-11-02T06:20:07.513Z,101106.94
2022-11-02T06:22:41.589Z,101108.28
2022-11-02T06:25:08.773Z,101150.94
2022-11-02T06:27:35.633Z,101142.69
2022-11-02T06:30:02.246Z,101112.50
2022-11-02T06:32:28.897Z,101121.78
2022-11-02T06:34:55.204Z,101141.72
2022-11-02T06:37:22.623Z,101176.13
2022-11-02T06:39:49.304Z,101168.75
2022-11-02T06:42:15.825Z,101185.88
2022-11-02T06:44:42.215Z,101157.69
2022-11-02T06:47:08.625Z,101137.38
2022-11-02T06:49:35.287Z,101185.94
2022-11-02T06:52:01.661Z,101159.72
2022-11-02T06:54:27.957Z,101203.50
2022-11-02T06:56:54.285Z,101202.78
2022-11-02T06:59:20.579Z,101194.47
2022-11-02T07:01:47.116Z,101203.00
2022-11-02T07:04:13.508Z,101217.41
2022-11-02T07:06:39.801Z,101184.41
2022-11-02T07:09:06.132Z,101203.88
2022-11-02T07:11:33.085Z,101193.06
2022-11-02T07:13:59.511Z,101224.41
2022-11-02T07:16:26.256Z,101174.59
2022-11-02T07:18:52.574Z,101257.88
2022-11-02T07:23:50.481Z,101252.53
2022-11-02T07:26:16.853Z,101254.53
2022-11-02T07:28:46.009Z,101200.44
2022-11-02T07:31:12.360Z,101265.53
2022-11-02T07:33:38.650Z,101256.75
2022-11-02T07:36:06.123Z,101300.88
2022-11-02T07:38:32.443Z,101277.09
2022-11-02T07:40:58.868Z,101316.13
2022-11-02T07:43:25.204Z,101258.31
2022-11-02T07:45:51.589Z,101282.03
2022-11-02T07:48:17.972Z,101292.63
2022-11-02T07:50:44.288Z,101302.00
2022-11-02T07:53:10.634Z,101276.19
2022-11-02T07:55:36.993Z,101312.78
2022-11-02T07:58:05.721Z,101343.94
2022-11-02T08:00:35.552Z,101242.81
2022-11-02T08:03:03.099Z,101243.00
2022-11-02T08:05:31.695Z,101333.69
2022-11-02T08:07:59.456Z,101205.63
2022-11-02T08:10:27.558Z,101312.59
2022-11-02T08:12:54.750Z,101323.25
2022-11-02T08:15:21.103Z,101327.88
2022-11-02T08:17:47.529Z,101338.88
2022-11-02T08:20:14.000Z,101329.59
2022-11-02T08:22:40.884Z,101265.47
2022-11-02T08:25:08.353Z,101324.56
2022-11-02T08:27:35.237Z,101308.09
2022-11-02T08:30:01.567Z,101345.41
2022-11-02T08:32:27.880Z,101301.16
2022-11-02T08:34:54.187Z,101349.63
2022-11-02T08:37:20.544Z,101351.56
2022-11-02T08:39:46.882Z,101361.13
2022-11-02T08:42:13.245Z,101331.91
2022-11-02T08:44:42.566Z,101359.66
2022-11-02T08:47:09.732Z,101369.53
2022-11-02T08:49:36.299Z,101367.66
2022-11-02T08:52:02.673Z,101356.00
2022-11-02T08:54:29.001Z,101373.78
2022-11-02T08:56:55.346Z,101359.78
2022-11-02T08:59:21.646Z,101374.94
2022-11-02T09:01:48.076Z,101410.41
2022-11-02T09:04:14.528Z,101426.41
2022-11-02T09:06:40.919Z,101403.66
2022-11-02T09:09:07.286Z,101374.06
2022-11-02T09:11:33.720Z,101381.97
2022-11-02T09:14:00.110Z,101410.88
2022-11-02T09:16:26.568Z,101385.66
2022-11-02T09:18:52.880Z,101417.19
2022-11-02T09:21:19.230Z,101391.47
2022-11-02T09:23:48.342Z,101312.09
2022-11-02T09:26:17.530Z,101401.25
2022-11-02T09:28:43.841Z,101422.47
2022-11-02T09:31:11.674Z,101434.44
2022-11-02T09:33:38.532Z,101409.16
2022-11-02T09:36:05.835Z,101401.97
2022-11-02T09:38:32.334Z,101421.88
2022-11-02T09:40:58.603Z,101433.66
2022-11-02T09:43:50.374Z,101406.59
2022-11-02T09:46:19.267Z,101452.16
2022-11-02T09:48:52.493Z,101407.34
2022-11-02T09:51:27.429Z,101437.94
2022-11-02T09:54:05.959Z,101451.28
2022-11-02T09:56:34.459Z,101423.66
2022-11-02T09:59:04.417Z,101433.91
2022-11-02T10:01:40.546Z,101445.94
2022-11-02T10:04:15.496Z,101455.09
2022-11-02T10:06:47.093Z,101407.47
2022-11-02T10:09:45.506Z,101433.66
2022-11-02T10:12:15.527Z,101452.16
2022-11-02T10:15:15.570Z,101453.72
2022-11-02T10:17:43.207Z,101453.63
2022-11-02T10:20:33.188Z,101460.38
2022-11-02T10:23:11.983Z,101445.06
2022-11-02T10:25:38.352Z,101438.09
2022-11-02T10:28:15.849Z,101448.00
2022-11-02T10:30:43.944Z,101431.19
2022-11-02T10:33:20.737Z,101446.47
2022-11-02T10:38:42.988Z,101464.59
2022-11-02T10:41:40.106Z,101431.22
2022-11-02T10:44:14.830Z,101450.72
2022-11-02T10:47:01.598Z,101462.19
2022-11-02T10:49:27.888Z,101473.06
2022-11-02T10:51:54.575Z,101434.66
2022-11-02T10:54:25.353Z,101409.84
2022-11-02T10:57:00.078Z,101463.88
2022-11-02T10:59:26.845Z,101445.25
2022-11-02T11:01:56.351Z,101471.03
2022-11-02T11:04:26.130Z,101480.31
2022-11-02T11:06:53.232Z,101445.59
2022-11-02T11:09:30.466Z,101484.56
2022-11-02T11:12:01.173Z,101447.94
2022-11-02T11:20:24.441Z,101477.69
2022-11-02T11:23:24.156Z,101474.59
2022-11-02T11:25:58.837Z,101466.19
2022-11-02T11:28:25.148Z,101486.94
2022-11-02T11:31:14.618Z,101475.50
2022-11-02T11:33:46.799Z,101477.16
2022-11-02T11:36:23.135Z,101457.16
2022-11-02T11:38:51.064Z,101476.03
2022-11-02T11:41:17.894Z,101467.41
2022-11-02T11:43:46.890Z,101445.25
2022-11-02T11:46:15.720Z,101469.88
2022-11-02T11:48:47.661Z,101477.09
2022-11-02T11:51:31.078Z,101435.66
2022-11-02T11:54:33.701Z,101455.06
2022-11-02T11:57:23.040Z,101466.31
2022-11-02T11:59:52.930Z,101465.53
2022-11-02T12:02:25.041Z,101462.97
2022-11-02T12:04:57.681Z,101443.84
2022-11-02T12:07:42.575Z,101467.53
2022-11-02T12:10:11.858Z,101458.44
2022-11-02T12:13:01.996Z,101425.63
2022-11-02T12:15:50.097Z,101453.94
2022-11-02T12:18:31.755Z,101457.97
2022-11-02T12:21:19.672Z,101454.75
2022-11-02T12:24:07.006Z,101425.34
2022-11-02T12:27:02.605Z,101451.84
2022-11-02T12:30:04.362Z,101451.31
2022-11-02T12:32:33.758Z,101428.63
2022-11-02T12:37:54.006Z,101428.75
2022-11-02T12:40:32.986Z,101399.81
2022-11-02T12:43:41.351Z,101420.97
2022-11-02T12:46:38.484Z,101411.13
2022-11-02T12:49:15.919Z,101408.03
2022-11-02T12:51:58.422Z,101397.59
2022-11-02T12:54:36.664Z,101344.78
2022-11-02T12:57:14.018Z,101399.06
2022-11-02T12:59:42.698Z,101396.59
2022-11-02T13:02:11.707Z,101417.19
2022-11-02T13:04:50.166Z,101381.94
2022-11-02T13:07:22.278Z,101387.22
2022-11-02T13:10:00.749Z,101335.13
2022-11-02T13:12:27.508Z,101389.81
2022-11-02T13:14:56.890Z,101401.78
2022-11-02T13:17:41.872Z,101409.88
2022-11-02T13:20:17.477Z,101407.28
2022-11-02T13:22:47.706Z,101380.72
2022-11-02T13:25:25.857Z,101353.88
2022-11-02T13:28:00.053Z,101387.47
2022-11-02T13:30:29.823Z,101375.38
2022-11-02T13:33:12.349Z,101387.22
2022-11-02T13:35:43.239Z,101343.00
2022-11-02T13:38:12.643Z,101402.81
2022-11-02T13:40:45.243Z,101339.91
2022-11-02T13:43:53.587Z,101319.59
2022-11-02T13:47:28.958Z,101384.25
2022-11-02T13:49:57.851Z,101382.66
2022-11-02T13:52:45.755Z,101337.75
2022-11-02T13:55:22.029Z,101380.56
2022-11-02T13:57:56.016Z,101352.13
2022-11-02T14:00:22.300Z,101354.41
2022-11-02T14:02:54.297Z,101341.25
2022-11-02T14:05:34.458Z,101373.91
2022-11-02T14:08:05.137Z,101353.41
2022-11-02T14:10:37.324Z,101314.19
2022-11-02T14:13:04.112Z,101313.50
2022-11-02T14:15:30.600Z,101369.38
2022-11-02T14:18:07.573Z,101365.00
2022-11-02T14:20:39.602Z,101353.97
2022-11-02T14:23:11.989Z,101368.81
2022-11-02T14:25:50.502Z,101369.22
2022-11-02T14:28:19.757Z,101368.97
2022-11-02T14:30:48.857Z,101354.94
2022-11-02T14:33:33.928Z,101365.28
2022-11-02T14:36:05.342Z,101363.28
2022-11-02T14:38:46.977Z,101366.16
2022-11-02T14:41:25.353Z,101357.47
2022-11-02T14:47:07.723Z,101329.66
2022-11-02T14:49:39.060Z,101347.03
2022-11-02T14:52:20.202Z,101351.91
2022-11-02T14:54:53.866Z,101321.34
2022-11-02T14:57:23.198Z,101346.53
2022-11-02T14:59:52.151Z,101343.81
2022-11-02T15:02:27.819Z,101335.88
2022-11-02T15:05:06.185Z,101323.34
2022-11-02T15:07:47.646Z,101322.06
2022-11-02T15:10:16.938Z,101327.09
2022-11-02T15:12:45.616Z,101321.81
2022-11-02T15:15:34.697Z,101324.50
2022-11-02T15:18:22.684Z,101299.34
2022-11-02T15:21:10.779Z,101323.84
2022-11-02T15:24:01.943Z,101347.66
2022-11-02T15:26:42.251Z,101334.31
2022-11-02T15:29:43.487Z,101335.06
2022-11-02T15:32:22.543Z,101331.81
2022-11-02T15:34:52.080Z,101302.38
2022-11-02T15:37:22.308Z,101333.56
2022-11-02T15:39:50.818Z,101305.41
2022-11-02T15:42:57.920Z,101321.47
2022-11-02T15:45:48.499Z,101329.34
2022-11-02T15:48:30.052Z,101327.75
2022-11-02T15:51:21.678Z,101328.78
2022-11-02T15:54:11.946Z,101327.75
2022-11-02T15:57:05.347Z,101277.69
2022-11-02T15:59:43.902Z,101328.19
2022-11-02T16:02:23.593Z,101316.69
2022-11-02T16:04:59.962Z,101275.13
2022-11-02T16:07:33.261Z,101271.00
2022-11-02T16:10:25.873Z,101292.63
2022-11-02T16:13:11.554Z,101309.19
2022-11-02T16:15:42.209Z,101307.47
2022-11-02T16:18:36.891Z,101276.59
2022-11-02T16:21:06.248Z,101227.09
2022-11-02T16:23:35.893Z,101280.25
2022-11-02T16:26:05.000Z,101293.97
2022-11-02T16:28:33.278Z,101280.47
2022-11-02T16:31:17.333Z,101297.72
2022-11-02T16:33:49.109Z,101281.56
2022-11-02T16:36:25.441Z,101230.53
2022-11-02T16:39:04.142Z,101275.38
2022-11-02T16:41:35.291Z,101263.19
2022-11-02T16:44:09.606Z,101287.66
2022-11-02T16:46:47.206Z,101290.50
2022-11-02T16:49:19.400Z,101291.97
2022-11-02T16:51:59.992Z,101247.31
2022-11-02T16:54:32.247Z,101297.44
2022-11-02T16:57:18.230Z,101254.41
2022-11-02T16:59:52.195Z,101277.06
2022-11-02T17:02:24.668Z,101290.53
2022-11-02T17:04:59.136Z,101236.44
2022-11-02T17:07:35.818Z,101281.19
2022-11-02T17:10:05.074Z,101290.94
2022-11-02T17:12:35.917Z,101296.00
2022-11-02T17:15:11.453Z,101292.56
2022-11-02T17:17:39.776Z,101300.38
2022-11-02T17:20:14.809Z,101301.09
2022-11-02T17:23:01.424Z,101300.25
2022-11-02T17:25:30.444Z,101272.44
2022-11-02T17:27:59.516Z,101294.28
2022-11-02T17:30:34.800Z,101305.16
2022-11-02T17:33:22.317Z,101270.41
2022-11-02T17:35:51.932Z,101263.56
2022-11-02T17:38:24.524Z,101288.13
2022-11-02T17:40:52.297Z,101274.22
2022-11-02T17:43:20.329Z,101271.75
2022-11-02T17:45:54.152Z,101296.22
2022-11-02T17:48:20.458Z,101254.81
2022-11-02T17:50:47.078Z,101262.06
2022-11-02T17:53:16.272Z,101231.63
2022-11-02T17:55:42.625Z,101254.09
2022-11-02T17:58:10.468Z,101264.63
2022-11-02T18:00:37.117Z,101240.19
2022-11-02T18:03:04.628Z,101297.34
2022-11-02T18:05:35.806Z,101291.22
2022-11-02T18:08:03.399Z,101276.53
2022-11-02T18:10:37.382Z,101263.88
2022-11-02T18:13:04.432Z,101231.69
2022-11-02T18:15:32.710Z,101280.09
2022-11-02T18:17:59.989Z,101254.59
2022-11-02T18:20:27.672Z,101270.56
2022-11-02T18:22:54.724Z,101229.50
2022-11-02T18:27:53.578Z,101225.50
2022-11-02T18:30:20.324Z,101243.91
2022-11-02T18:32:46.814Z,101267.41
2022-11-02T18:35:16.840Z,101256.47
2022-11-02T18:37:43.168Z,101258.00
2022-11-02T18:40:11.943Z,101238.28
2022-11-02T18:42:39.616Z,101225.63
2022-11-02T18:45:06.466Z,101216.00
2022-11-02T18:47:33.207Z,101264.38
2022-11-02T18:50:00.630Z,101233.34
2022-11-02T18:52:32.076Z,101272.28
2022-11-02T18:55:04.044Z,101243.50
2022-11-02T18:57:31.587Z,101261.34
2022-11-02T18:59:58.345Z,101253.63
2022-11-02T19:02:25.081Z,101245.94
2022-11-02T19:04:51.448Z,101237.63
2022-11-02T19:07:36.450Z,101232.38
2022-11-02T19:10:04.083Z,101215.72
2022-11-02T19:12:31.190Z,101193.16
2022-11-02T19:14:57.637Z,101206.59
2022-11-02T19:17:25.933Z,101196.22
2022-11-02T19:19:52.723Z,101196.56
2022-11-02T19:22:21.698Z,101231.22
2022-11-02T19:24:48.197Z,101221.75
2022-11-02T19:27:19.881Z,101213.69
2022-11-02T19:29:46.296Z,101207.38
2022-11-02T19:32:12.914Z,101177.94
2022-11-02T19:34:39.236Z,101185.84
2022-11-02T19:37:07.320Z,101214.38
2022-11-02T19:39:33.942Z,101157.38
2022-11-02T19:42:00.367Z,101154.84
2022-11-02T19:44:26.706Z,101167.16
2022-11-02T19:46:53.120Z,101137.63
2022-11-02T19:49:19.454Z,101165.44
2022-11-02T19:51:45.810Z,101186.41
2022-11-02T19:54:12.220Z,101132.22
2022-11-02T19:56:38.800Z,101154.81
2022-11-02T19:59:06.093Z,101144.13
2022-11-02T20:01:34.903Z,101179.00
2022-11-02T20:04:01.701Z,101142.06
2022-11-02T20:06:38.046Z,101134.53
2022-11-02T20:09:09.630Z,101170.06
2022-11-02T20:11:44.185Z,101145.81
2022-11-02T20:14:17.580Z,101085.56
2022-11-02T20:16:45.340Z,101164.00
2022-11-02T20:19:20.184Z,101052.44
2022-11-02T20:21:46.512Z,101092.66
2022-11-02T20:24:12.880Z,101028.97
2022-11-02T20:26:43.146Z,101064.66
2022-11-02T20:29:12.278Z,101024.91
2022-11-02T20:31:42.073Z,101073.38
2022-11-02T20:34:09.543Z,101127.66
2022-11-02T20:36:36.335Z,101129.97
2022-11-02T20:39:07.385Z,101111.09
2022-11-02T20:41:33.897Z,101046.97
2022-11-02T20:44:00.293Z,101008.09
2022-11-02T20:46:38.160Z,101050.50
2022-11-02T20:49:19.912Z,101005.47
2022-11-02T20:51:50.725Z,101012.75
2022-11-02T20:54:19.174Z,101074.84
2022-11-02T20:56:45.985Z,101038.25
2022-11-02T20:59:12.397Z,101022.94
2022-11-02T21:01:38.964Z,101041.44
2022-11-02T21:04:05.485Z,101036.75
2022-11-02T21:06:31.972Z,101073.91
2022-11-02T21:09:00.266Z,101085.19
2022-11-02T21:11:45.284Z,101045.44
2022-11-02T21:14:12.027Z,101020.34
2022-11-02T21:16:38.409Z,101015.13
2022-11-02T21:19:05.175Z,101018.34
2022-11-02T21:21:31.649Z,101031.47
2022-11-02T21:23:58.207Z,100996.97
2022-11-02T21:26:24.817Z,101007.56
2022-11-02T21:28:51.416Z,101062.69
2022-11-02T21:31:20.340Z,101077.88
2022-11-02T21:33:48.374Z,101020.16
2022-11-02T21:36:15.723Z,101071.03
2022-11-02T21:38:43.753Z,101009.06
2022-11-02T21:41:16.774Z,100957.03
2022-11-02T21:43:43.132Z,100990.41
2022-11-02T21:46:09.449Z,100985.63
2022-11-02T21:48:37.367Z,101017.81
2022-11-02T21:51:12.906Z,101033.53
2022-11-02T21:53:44.188Z,101024.41
2022-11-02T21:56:12.599Z,101049.75
2022-11-02T21:58:44.598Z,100997.72
2022-11-02T22:01:41.228Z,101055.34
2022-11-02T22:04:08.649Z,101052.72
2022-11-02T22:06:35.050Z,100997.47
2022-11-02T22:09:01.862Z,101036.09
2022-11-02T22:11:28.712Z,101036.81
2022-11-02T22:13:57.409Z,100980.94
2022-11-02T22:16:27.831Z,101025.22
2022-11-02T22:18:59.438Z,101006.41
2022-11-02T22:21:31.056Z,100976.75
2022-11-02T22:23:58.094Z,101030.66
2022-11-02T22:26:26.946Z,101037.81
2022-11-02T22:28:54.045Z,100996.72
2022-11-02T22:31:26.121Z,101009.22
2022-11-02T22:33:54.638Z,101026.66
2022-11-02T22:36:24.509Z,100937.03
2022-11-02T22:38:53.329Z,101003.22
2022-11-02T22:41:45.002Z,101001.50
2022-11-02T22:44:20.817Z,101004.59
2022-11-02T22:46:49.665Z,100992.53
2022-11-02T22:49:18.193Z,100963.97
2022-11-02T22:51:47.088Z,100986.75
2022-11-02T22:54:17.967Z,100995.56
2022-11-02T22:56:46.404Z,100977.81
2022-11-02T22:59:13.501Z,100980.38
2022-11-02T23:01:40.746Z,100984.13
2022-11-02T23:04:07.382Z,100944.91
2022-11-02T23:06:34.609Z,100960.06
2022-11-02T23:09:01.246Z,100959.91
2022-11-02T23:11:30.215Z,100950.63
2022-11-02T23:14:04.314Z,100961.38
2022-11-02T23:16:31.669Z,100968.69
2022-11-02T23:19:31.011Z,100967.22
2022-11-02T23:22:27.922Z,100954.72
2022-11-02T23:25:12.629Z,100957.13
2022-11-02T23:28:02.902Z,100948.69
2022-11-02T23:30:53.240Z,100967.13
2022-11-02T23:33:20.871Z,100934.84
2022-11-02T23:36:05.847Z,100925.53
2022-11-02T23:38:50.496Z,100917.69
2022-11-02T23:41:17.537Z,100953.44
2022-11-02T23:43:43.865Z,100929.47
2022-11-02T23:46:10.276Z,100832.97
2022-11-02T23:48:36.761Z,100934.47
2022-11-02T23:51:22.227Z,100929.06
2022-11-02T23:54:07.092Z,100932.59
2022-11-02T23:56:43.242Z,100917.69
2022-11-02T23:59:10.290Z,100931.19
